createdAt,value
2017-02-06T00:00:30.922Z,0
2017-02-06T00:01:45.762Z,0
2017-02-06T00:03:00.417Z,0
2017-02-06T00:04:18.911Z,0
2017-02-06T00:05:33.642Z,0
2017-02-06T00:06:49.761Z,0
2017-02-06T00:08:04.680Z,0
2017-02-06T00:09:20.411Z,0
2017-02-06T00:10:36.314Z,0
2017-02-06T00:11:52.582Z,0
2017-02-06T00:13:07.804Z,0
2017-02-06T00:14:22.477Z,0
2017-02-06T00:15:38.305Z,0
2017-02-06T00:16:54.564Z,0
2017-02-06T00:18:09.939Z,0
2017-02-06T00:19:24.204Z,0
2017-02-06T00:20:40.232Z,0
2017-02-06T00:21:55.584Z,0
2017-02-06T00:23:11.954Z,0
2017-02-06T00:24:27.173Z,0
2017-02-06T00:25:42.151Z,0
2017-02-06T00:26:57.985Z,0
2017-02-06T00:28:13.160Z,0
2017-02-06T00:29:27.461Z,0
2017-02-06T00:30:43.659Z,0
2017-02-06T00:32:29.808Z,0
2017-02-06T00:33:45.617Z,0
2017-02-06T00:35:04.303Z,0
2017-02-06T00:36:19.088Z,0
2017-02-06T00:37:33.612Z,0
2017-02-06T00:38:57.864Z,0
2017-02-06T00:40:12.659Z,0
2017-02-06T00:41:29.184Z,0
2017-02-06T00:42:44.211Z,0
2017-02-06T00:43:58.251Z,0
2017-02-06T00:45:12.810Z,0
2017-02-06T00:46:27.238Z,0
2017-02-06T00:47:42.934Z,0
2017-02-06T00:48:58.096Z,0
2017-02-06T00:50:13.014Z,0
2017-02-06T00:51:27.567Z,0
2017-02-06T00:52:42.896Z,0
2017-02-06T00:53:57.969Z,0
2017-02-06T00:55:12.840Z,0
2017-02-06T00:56:27.422Z,0
2017-02-06T00:57:42.259Z,0
2017-02-06T00:58:56.869Z,0
2017-02-06T01:00:11.399Z,0
2017-02-06T01:01:26.008Z,0
2017-02-06T01:02:40.633Z,0
2017-02-06T01:03:54.790Z,0
2017-02-06T01:05:09.737Z,0
2017-02-06T01:06:24.760Z,0
2017-02-06T01:07:39.150Z,0
2017-02-06T01:08:53.319Z,0
2017-02-06T01:10:07.532Z,0
2017-02-06T01:11:22.086Z,0
2017-02-06T01:12:36.478Z,0
2017-02-06T01:13:50.560Z,0
2017-02-06T01:15:05.034Z,0
2017-02-06T01:16:19.632Z,0
2017-02-06T01:17:34.480Z,0
2017-02-06T01:18:48.686Z,0
2017-02-06T01:20:02.689Z,0
2017-02-06T01:21:16.790Z,0
2017-02-06T01:22:30.735Z,0
2017-02-06T01:23:45.794Z,0
2017-02-06T01:25:00.354Z,0
2017-02-06T01:26:14.506Z,0
2017-02-06T01:27:29.339Z,0
2017-02-06T01:28:43.422Z,0
2017-02-06T01:29:58.302Z,0
2017-02-06T01:31:13.855Z,0
2017-02-06T01:32:28.045Z,0
2017-02-06T01:33:42.530Z,0
2017-02-06T01:34:57.250Z,0
2017-02-06T01:36:11.701Z,0
2017-02-06T01:37:26.245Z,0
2017-02-06T01:38:40.651Z,0
2017-02-06T01:39:54.864Z,0
2017-02-06T01:41:08.790Z,0
2017-02-06T01:42:22.949Z,0
2017-02-06T01:43:36.886Z,0
2017-02-06T01:44:50.999Z,0
2017-02-06T01:46:06.018Z,0
2017-02-06T01:47:21.135Z,0
2017-02-06T01:48:35.884Z,0
2017-02-06T01:49:50.026Z,0
2017-02-06T01:51:04.506Z,0
2017-02-06T01:52:21.266Z,0
2017-02-06T01:53:35.240Z,0
2017-02-06T01:54:50.428Z,0
2017-02-06T01:56:05.016Z,0
2017-02-06T01:57:19.792Z,0
2017-02-06T01:58:34.338Z,0
2017-02-06T01:59:48.766Z,0
2017-02-06T02:01:02.989Z,0
2017-02-06T02:02:16.959Z,0
2017-02-06T02:03:31.553Z,0
2017-02-06T02:04:45.536Z,0
2017-02-06T02:06:01.391Z,0
2017-02-06T02:07:17.183Z,0
2017-02-06T02:08:31.303Z,0
2017-02-06T02:09:54.622Z,0
2017-02-06T02:11:10.164Z,0
2017-02-06T02:12:25.022Z,0
2017-02-06T02:13:39.305Z,0
2017-02-06T02:14:53.725Z,0
2017-02-06T02:16:08.459Z,0
2017-02-06T02:17:22.421Z,0
2017-02-06T02:18:36.585Z,0
2017-02-06T02:19:50.663Z,0
2017-02-06T02:21:04.976Z,0
2017-02-06T02:22:18.914Z,0
2017-02-06T02:23:33.054Z,0
2017-02-06T02:24:47.450Z,0
2017-02-06T02:26:02.224Z,0
2017-02-06T02:27:16.207Z,0
2017-02-06T02:28:30.843Z,0
2017-02-06T02:29:45.049Z,0
2017-02-06T02:31:00.042Z,0
2017-02-06T02:32:14.553Z,0
2017-02-06T02:33:29.553Z,0
2017-02-06T02:34:44.541Z,0
2017-02-06T02:35:58.962Z,0
2017-02-06T02:37:13.124Z,0
2017-02-06T02:38:27.088Z,0
2017-02-06T02:39:41.719Z,0
2017-02-06T02:40:55.854Z,0
2017-02-06T02:42:10.442Z,0
2017-02-06T02:43:25.445Z,0
2017-02-06T02:44:40.447Z,0
2017-02-06T02:45:54.877Z,0
2017-02-06T02:47:09.192Z,0
2017-02-06T02:48:24.083Z,0
2017-02-06T02:49:38.695Z,0
2017-02-06T02:50:52.630Z,0
2017-02-06T02:52:07.204Z,0
2017-02-06T02:53:21.177Z,0
2017-02-06T02:54:35.267Z,0
2017-02-06T02:55:49.442Z,0
2017-02-06T02:57:03.580Z,0
2017-02-06T02:58:17.670Z,0
2017-02-06T02:59:32.301Z,0
2017-02-06T03:00:46.272Z,0
2017-02-06T03:02:00.469Z,0
2017-02-06T03:03:14.969Z,0
2017-02-06T03:04:29.217Z,0
2017-02-06T03:05:43.166Z,0
2017-02-06T03:06:57.274Z,0
2017-02-06T03:08:11.253Z,0
2017-02-06T03:09:28.074Z,0
2017-02-06T03:10:42.112Z,0
2017-02-06T03:11:56.327Z,0
2017-02-06T03:13:10.330Z,0
2017-02-06T03:14:24.475Z,0
2017-02-06T03:15:39.015Z,0
2017-02-06T03:16:53.659Z,0
2017-02-06T03:18:07.636Z,0
2017-02-06T03:19:21.794Z,0
2017-02-06T03:20:35.734Z,0
2017-02-06T03:21:49.933Z,0
2017-02-06T03:23:10.512Z,0
2017-02-06T03:24:46.759Z,0
2017-02-06T03:26:02.143Z,0
2017-02-06T03:27:17.324Z,0
2017-02-06T03:28:32.232Z,0
2017-02-06T03:29:49.262Z,0
2017-02-06T03:31:07.540Z,0
2017-02-06T03:32:22.611Z,0
2017-02-06T03:33:36.899Z,0
2017-02-06T03:34:51.896Z,0
2017-02-06T03:36:06.219Z,0
2017-02-06T03:37:20.294Z,0
2017-02-06T03:38:34.262Z,0
2017-02-06T03:39:48.359Z,0
2017-02-06T03:41:02.301Z,0
2017-02-06T03:42:16.845Z,0
2017-02-06T03:43:30.829Z,0
2017-02-06T03:44:44.939Z,0
2017-02-06T03:45:59.327Z,0
2017-02-06T03:47:13.445Z,0
2017-02-06T03:48:28.109Z,0
2017-02-06T03:49:43.146Z,0
2017-02-06T03:50:57.628Z,0
2017-02-06T03:52:11.743Z,0
2017-02-06T03:53:25.833Z,0
2017-02-06T03:54:40.722Z,0
2017-02-06T03:55:55.541Z,0
2017-02-06T03:57:09.631Z,0
2017-02-06T03:58:23.594Z,0
2017-02-06T03:59:38.331Z,0
2017-02-06T04:00:52.571Z,0
2017-02-06T04:02:07.225Z,0
2017-02-06T04:03:21.805Z,0
2017-02-06T04:04:36.041Z,0
2017-02-06T04:05:50.944Z,0
2017-02-06T04:07:05.396Z,0
2017-02-06T04:08:19.654Z,0
2017-02-06T04:09:34.517Z,0
2017-02-06T04:10:48.472Z,0
2017-02-06T04:12:03.575Z,0
2017-02-06T04:13:17.810Z,0
2017-02-06T04:14:32.439Z,0
2017-02-06T04:15:46.382Z,0
2017-02-06T04:17:00.472Z,0
2017-02-06T04:18:14.440Z,0
2017-02-06T04:19:29.727Z,0
2017-02-06T04:20:43.744Z,0
2017-02-06T04:21:58.334Z,0
2017-02-06T04:23:12.735Z,0
2017-02-06T04:24:27.418Z,0
2017-02-06T04:25:41.703Z,0
2017-02-06T04:26:58.154Z,0
2017-02-06T04:28:12.549Z,0
2017-02-06T04:29:26.675Z,0
2017-02-06T04:30:40.679Z,0
2017-02-06T04:31:55.217Z,0
2017-02-06T04:33:10.461Z,0
2017-02-06T04:34:25.680Z,0
2017-02-06T04:35:40.273Z,0
2017-02-06T04:36:54.441Z,0
2017-02-06T04:38:10.157Z,0
2017-02-06T04:39:24.832Z,0
2017-02-06T04:40:39.393Z,0
2017-02-06T04:41:54.470Z,0
2017-02-06T04:43:08.865Z,0
2017-02-06T04:44:23.275Z,0
2017-02-06T04:45:38.397Z,0
2017-02-06T04:46:52.507Z,0
2017-02-06T04:48:07.514Z,0
2017-02-06T04:49:22.084Z,0
2017-02-06T04:50:37.287Z,0
2017-02-06T04:51:52.188Z,0
2017-02-06T04:53:06.200Z,0
2017-02-06T04:54:20.299Z,0
2017-02-06T04:55:34.243Z,0
2017-02-06T04:56:49.134Z,0
2017-02-06T04:58:03.069Z,0
2017-02-06T04:59:17.700Z,0
2017-02-06T05:00:31.668Z,0
2017-02-06T05:01:46.245Z,0
2017-02-06T05:03:00.585Z,0
2017-02-06T05:04:14.681Z,0
2017-02-06T05:05:28.627Z,0
2017-02-06T05:06:43.221Z,0
2017-02-06T05:07:57.620Z,0
2017-02-06T05:09:12.081Z,0
2017-02-06T05:10:27.400Z,0
2017-02-06T05:11:41.604Z,0
2017-02-06T05:12:55.763Z,0
2017-02-06T05:14:09.886Z,0
2017-02-06T05:15:25.089Z,0
2017-02-06T05:16:39.241Z,0
2017-02-06T05:17:53.766Z,0
2017-02-06T05:19:07.885Z,0
2017-02-06T05:20:21.893Z,0
2017-02-06T05:21:36.453Z,0
2017-02-06T05:22:50.472Z,0
2017-02-06T05:24:05.268Z,0
2017-02-06T05:25:19.683Z,0
2017-02-06T05:26:34.277Z,0
2017-02-06T05:27:49.140Z,0
2017-02-06T05:29:04.307Z,0
2017-02-06T05:30:19.078Z,0
2017-02-06T05:31:34.135Z,0
2017-02-06T05:32:48.615Z,0
2017-02-06T05:34:03.922Z,0
2017-02-06T05:35:18.190Z,0
2017-02-06T05:36:33.116Z,0
2017-02-06T05:37:48.252Z,0
2017-02-06T05:39:03.177Z,0
2017-02-06T05:40:17.571Z,0
2017-02-06T05:41:31.628Z,0
2017-02-06T05:42:45.875Z,0
2017-02-06T05:44:02.226Z,0
2017-02-06T05:45:16.186Z,0
2017-02-06T05:46:31.007Z,0
2017-02-06T05:47:45.912Z,0
2017-02-06T05:49:00.597Z,0
2017-02-06T05:50:15.016Z,0
2017-02-06T05:51:29.117Z,0
2017-02-06T05:52:44.294Z,0
2017-02-06T05:53:58.510Z,0
2017-02-06T05:55:13.176Z,0
2017-02-06T05:56:27.303Z,0
2017-02-06T05:57:41.301Z,0
2017-02-06T05:58:56.232Z,0
2017-02-06T06:00:10.794Z,0
2017-02-06T06:01:25.632Z,0
2017-02-06T06:03:03.815Z,0
2017-02-06T06:04:18.970Z,0
2017-02-06T06:05:33.993Z,0
2017-02-06T06:06:49.647Z,0
2017-02-06T06:08:03.817Z,0
2017-02-06T06:09:20.107Z,0
2017-02-06T06:10:34.113Z,0
2017-02-06T06:11:48.650Z,0
2017-02-06T06:13:03.977Z,0
2017-02-06T06:14:19.951Z,0
2017-02-06T06:15:36.925Z,0
2017-02-06T06:16:56.879Z,0
2017-02-06T06:22:22.384Z,0
2017-02-06T06:23:37.521Z,0
2017-02-06T06:24:52.524Z,0
2017-02-06T06:26:07.283Z,0
2017-02-06T06:27:22.726Z,0
2017-02-06T06:29:21.280Z,0
2017-02-06T06:30:37.090Z,0
2017-02-06T06:31:50.682Z,0
2017-02-06T06:33:04.157Z,0
2017-02-06T06:34:17.803Z,0
2017-02-06T06:35:31.631Z,0
2017-02-06T06:36:45.587Z,0
2017-02-06T06:37:59.083Z,0
2017-02-06T06:39:12.747Z,0
2017-02-06T06:40:26.249Z,0
2017-02-06T06:41:39.891Z,0
2017-02-06T06:42:54.242Z,0
2017-02-06T06:44:08.705Z,0
2017-02-06T06:45:23.017Z,0
2017-02-06T06:46:36.552Z,0
2017-02-06T06:47:50.026Z,0
2017-02-06T06:49:06.745Z,0
2017-02-06T06:50:21.189Z,0
2017-02-06T06:51:34.713Z,5
2017-02-06T06:52:48.740Z,5
2017-02-06T06:54:02.677Z,5
2017-02-06T06:55:16.913Z,5
2017-02-06T06:56:31.150Z,5
2017-02-06T06:57:44.720Z,5
2017-02-06T06:58:58.181Z,5
2017-02-06T07:00:11.777Z,5
2017-02-06T07:01:25.602Z,10
2017-02-06T07:02:39.330Z,10
2017-02-06T07:03:52.905Z,10
2017-02-06T07:05:09.270Z,10
2017-02-06T07:06:23.220Z,10
2017-02-06T07:07:38.060Z,10
2017-02-06T07:08:51.934Z,15
2017-02-06T07:10:05.567Z,15
2017-02-06T07:11:19.111Z,15
2017-02-06T07:12:32.721Z,15
2017-02-06T07:13:48.566Z,15
2017-02-06T07:15:02.775Z,20
2017-02-06T07:16:16.411Z,20
2017-02-06T07:17:31.421Z,20
2017-02-06T07:18:45.350Z,20
2017-02-06T07:20:11.944Z,20
2017-02-06T07:21:25.974Z,25
2017-02-06T07:22:39.860Z,25
2017-02-06T07:23:54.766Z,25
2017-02-06T07:25:09.137Z,25
2017-02-06T07:26:23.562Z,30
2017-02-06T07:27:37.092Z,30
2017-02-06T07:28:50.717Z,30
2017-02-06T07:30:04.660Z,30
2017-02-06T07:31:18.280Z,35
2017-02-06T07:32:32.388Z,35
2017-02-06T07:33:46.000Z,35
2017-02-06T07:34:59.952Z,35
2017-02-06T07:36:13.911Z,35
2017-02-06T07:37:27.406Z,40
2017-02-06T07:38:41.728Z,40
2017-02-06T07:39:55.206Z,40
2017-02-06T07:41:09.377Z,40
2017-02-06T07:42:22.916Z,40
2017-02-06T07:43:37.399Z,40
2017-02-06T07:44:51.560Z,45
2017-02-06T07:46:05.238Z,45
2017-02-06T07:47:19.883Z,45
2017-02-06T07:48:33.484Z,45
2017-02-06T07:49:47.424Z,45
2017-02-06T07:51:01.759Z,50
2017-02-06T07:52:15.245Z,50
2017-02-06T07:53:29.307Z,50
2017-02-06T07:54:43.335Z,50
2017-02-06T07:55:56.981Z,50
2017-02-06T07:57:10.743Z,55
2017-02-06T07:58:25.220Z,55
2017-02-06T07:59:38.694Z,55
2017-02-06T08:01:21.498Z,60
2017-02-06T08:02:35.023Z,60
2017-02-06T08:03:48.549Z,60
2017-02-06T08:05:02.102Z,60
2017-02-06T08:06:16.012Z,65
2017-02-06T08:07:29.946Z,65
2017-02-06T08:08:43.885Z,70
2017-02-06T08:09:57.469Z,70
2017-02-06T08:11:11.360Z,70
2017-02-06T08:12:25.009Z,75
2017-02-06T08:13:38.463Z,75
2017-02-06T08:14:52.426Z,75
2017-02-06T08:16:05.922Z,75
2017-02-06T08:17:19.973Z,80
2017-02-06T08:18:33.487Z,80
2017-02-06T08:19:47.401Z,80
2017-02-06T08:21:01.330Z,80
2017-02-06T08:22:17.085Z,80
2017-02-06T08:23:30.984Z,85
2017-02-06T08:25:05.302Z,85
2017-02-06T08:26:18.903Z,85
2017-02-06T08:27:33.204Z,85
2017-02-06T08:28:47.391Z,90
2017-02-06T08:30:01.274Z,90
2017-02-06T08:31:15.389Z,90
2017-02-06T08:32:30.120Z,90
2017-02-06T08:33:45.591Z,90
2017-02-06T08:34:59.875Z,90
2017-02-06T08:36:14.529Z,90
2017-02-06T08:37:28.159Z,90
2017-02-06T08:38:41.608Z,90
2017-02-06T08:39:55.576Z,90
2017-02-06T08:41:09.065Z,90
2017-02-06T08:42:23.379Z,90
2017-02-06T08:43:36.786Z,90
2017-02-06T08:44:50.295Z,90
2017-02-06T08:46:03.747Z,95
2017-02-06T08:47:17.451Z,90
2017-02-06T08:48:31.635Z,90
2017-02-06T08:49:45.188Z,85
2017-02-06T08:50:58.661Z,85
2017-02-06T08:52:13.085Z,85
2017-02-06T08:53:27.410Z,85
2017-02-06T08:54:41.234Z,85
2017-02-06T08:55:55.068Z,85
2017-02-06T08:57:09.060Z,85
2017-02-06T08:58:22.494Z,85
2017-02-06T08:59:36.444Z,90
2017-02-06T09:00:50.189Z,90
2017-02-06T09:02:03.723Z,90
2017-02-06T09:03:17.261Z,90
2017-02-06T09:04:31.251Z,90
2017-02-06T09:05:45.105Z,90
2017-02-06T09:06:58.917Z,90
2017-02-06T09:08:12.383Z,90
2017-02-06T09:09:26.363Z,85
2017-02-06T09:10:40.637Z,90
2017-02-06T09:11:54.159Z,90
2017-02-06T09:13:08.309Z,90
2017-02-06T09:14:21.845Z,90
2017-02-06T09:15:35.265Z,90
2017-02-06T09:16:49.305Z,95
2017-02-06T09:18:03.154Z,95
2017-02-06T09:19:17.169Z,100
2017-02-06T09:20:30.774Z,95
2017-02-06T09:21:44.348Z,95
2017-02-06T09:22:57.835Z,95
2017-02-06T09:24:12.242Z,100
2017-02-06T09:25:25.658Z,100
2017-02-06T09:26:39.228Z,100
2017-02-06T09:27:52.703Z,105
2017-02-06T09:29:15.464Z,105
2017-02-06T09:30:28.988Z,105
2017-02-06T09:31:42.425Z,105
2017-02-06T09:32:56.790Z,110
2017-02-06T09:34:10.305Z,110
2017-02-06T09:35:24.129Z,110
2017-02-06T09:36:37.977Z,110
2017-02-06T09:37:51.521Z,115
2017-02-06T09:39:07.372Z,115
2017-02-06T09:40:20.827Z,115
2017-02-06T09:41:34.691Z,115
2017-02-06T09:42:48.114Z,120
2017-02-06T09:44:01.673Z,120
2017-02-06T09:45:15.752Z,125
2017-02-06T09:46:29.288Z,125
2017-02-06T09:47:43.082Z,125
2017-02-06T09:48:56.648Z,130
2017-02-06T09:50:10.162Z,130
2017-02-06T09:51:42.727Z,135
2017-02-06T09:53:01.426Z,140
2017-02-06T09:54:22.750Z,140
2017-02-06T09:55:44.964Z,145
2017-02-06T09:57:07.938Z,150
2017-02-06T09:58:22.260Z,150
2017-02-06T09:59:35.862Z,150
2017-02-06T10:00:49.491Z,155
2017-02-06T10:02:03.433Z,155
2017-02-06T10:03:17.451Z,155
2017-02-06T10:04:30.937Z,160
2017-02-06T10:05:45.030Z,160
2017-02-06T10:06:59.220Z,155
2017-02-06T10:08:29.382Z,160
2017-02-06T10:09:43.011Z,160
2017-02-06T10:10:57.451Z,165
2017-02-06T10:12:11.567Z,165
2017-02-06T10:13:25.480Z,165
2017-02-06T10:14:40.194Z,170
2017-02-06T10:15:54.228Z,170
2017-02-06T10:17:07.802Z,175
2017-02-06T10:18:21.295Z,175
2017-02-06T10:19:34.888Z,175
2017-02-06T10:20:49.083Z,175
2017-02-06T10:22:02.608Z,175
2017-02-06T10:23:16.467Z,180
2017-02-06T10:24:30.679Z,180
2017-02-06T10:26:46.072Z,185
2017-02-06T10:27:59.687Z,185
2017-02-06T10:29:13.107Z,185
2017-02-06T10:30:27.181Z,185
2017-02-06T10:31:40.749Z,185
2017-02-06T10:32:55.145Z,185
2017-02-06T10:34:08.841Z,190
2017-02-06T10:35:23.189Z,190
2017-02-06T10:36:37.917Z,195
2017-02-06T10:37:51.551Z,190
2017-02-06T10:39:05.816Z,190
2017-02-06T10:40:19.482Z,190
2017-02-06T10:41:33.415Z,190
2017-02-06T10:42:47.472Z,190
2017-02-06T10:44:01.340Z,190
2017-02-06T10:45:15.886Z,190
2017-02-06T10:46:29.415Z,190
2017-02-06T10:47:43.711Z,190
2017-02-06T10:48:57.472Z,190
2017-02-06T10:50:11.242Z,195
2017-02-06T10:51:26.655Z,195
2017-02-06T10:52:51.653Z,195
2017-02-06T10:54:22.749Z,195
2017-02-06T10:55:41.420Z,195
2017-02-06T10:56:57.491Z,195
2017-02-06T10:58:13.465Z,195
2017-02-06T10:59:32.266Z,195
2017-02-06T11:00:45.825Z,195
2017-02-06T11:01:59.745Z,200
2017-02-06T11:03:14.245Z,200
2017-02-06T11:04:28.136Z,200
2017-02-06T11:05:42.197Z,195
2017-02-06T11:06:56.525Z,195
2017-02-06T11:08:10.541Z,195
2017-02-06T11:09:24.417Z,195
2017-02-06T11:10:47.119Z,190
2017-02-06T11:12:01.519Z,190
2017-02-06T11:13:15.455Z,190
2017-02-06T11:14:29.441Z,190
2017-02-06T11:15:43.363Z,190
2017-02-06T11:16:57.233Z,185
2017-02-06T11:18:11.114Z,185
2017-02-06T11:19:24.703Z,185
2017-02-06T11:20:38.227Z,185
2017-02-06T11:21:51.955Z,185
2017-02-06T11:23:06.208Z,185
2017-02-06T11:24:20.301Z,185
2017-02-06T11:25:34.202Z,185
2017-02-06T11:26:48.181Z,185
2017-02-06T11:28:02.084Z,180
2017-02-06T11:29:17.254Z,180
2017-02-06T11:30:31.339Z,175
2017-02-06T11:31:44.946Z,175
2017-02-06T11:32:58.799Z,175
2017-02-06T11:34:13.513Z,170
2017-02-06T11:35:27.282Z,170
2017-02-06T11:36:41.447Z,170
2017-02-06T11:37:55.170Z,170
2017-02-06T11:39:08.799Z,165
2017-02-06T11:40:22.330Z,165
2017-02-06T11:41:36.679Z,170
2017-02-06T11:42:50.608Z,160
2017-02-06T11:44:04.302Z,160
2017-02-06T11:45:18.316Z,155
2017-02-06T11:46:31.864Z,155
2017-02-06T11:47:45.604Z,155
2017-02-06T11:48:59.556Z,155
2017-02-06T11:50:13.439Z,155
2017-02-06T11:51:27.084Z,155
2017-02-06T11:52:41.005Z,155
2017-02-06T11:53:55.840Z,155
2017-02-06T11:55:10.228Z,150
2017-02-06T11:56:23.777Z,150
2017-02-06T11:57:37.360Z,145
2017-02-06T11:58:51.039Z,145
2017-02-06T12:00:04.880Z,145
2017-02-06T12:01:18.530Z,145
2017-02-06T12:02:32.016Z,145
2017-02-06T12:03:45.651Z,145
2017-02-06T12:04:59.496Z,145
2017-02-06T12:06:13.799Z,145
2017-02-06T12:07:27.726Z,145
2017-02-06T12:08:41.264Z,145
2017-02-06T12:09:55.252Z,145
2017-02-06T12:11:09.369Z,145
2017-02-06T12:12:23.235Z,145
2017-02-06T12:13:36.814Z,145
2017-02-06T12:14:53.179Z,145
2017-02-06T12:16:06.782Z,145
2017-02-06T12:17:21.433Z,145
2017-02-06T12:18:35.146Z,145
2017-02-06T12:19:48.727Z,145
2017-02-06T12:21:02.228Z,150
2017-02-06T12:22:31.949Z,150
2017-02-06T12:23:46.271Z,150
2017-02-06T12:25:00.133Z,150
2017-02-06T12:26:13.721Z,150
2017-02-06T12:27:27.182Z,150
2017-02-06T12:28:41.345Z,150
2017-02-06T12:29:54.810Z,155
2017-02-06T12:31:08.557Z,155
2017-02-06T12:32:21.997Z,155
2017-02-06T12:33:35.579Z,160
2017-02-06T12:34:49.299Z,160
2017-02-06T12:36:03.704Z,155
2017-02-06T12:37:17.483Z,155
2017-02-06T12:38:31.868Z,155
2017-02-06T12:39:45.320Z,150
2017-02-06T12:40:59.193Z,150
2017-02-06T12:42:13.225Z,150
2017-02-06T12:43:27.247Z,150
2017-02-06T12:44:40.776Z,145
2017-02-06T12:45:54.740Z,145
2017-02-06T12:47:09.362Z,145
2017-02-06T12:48:22.952Z,140
2017-02-06T12:49:36.617Z,140
2017-02-06T12:50:50.172Z,135
2017-02-06T12:52:03.810Z,135
2017-02-06T12:53:17.667Z,130
2017-02-06T12:54:31.097Z,135
2017-02-06T12:55:44.843Z,135
2017-02-06T12:56:58.707Z,135
2017-02-06T12:58:12.562Z,135
2017-02-06T12:59:27.177Z,135
2017-02-06T13:00:41.206Z,130
2017-02-06T13:01:54.716Z,130
2017-02-06T13:03:08.391Z,130
2017-02-06T13:04:22.465Z,130
2017-02-06T13:05:36.276Z,130
2017-02-06T13:06:50.125Z,130
2017-02-06T13:08:04.183Z,130
2017-02-06T13:09:18.099Z,130
2017-02-06T13:10:32.166Z,130
2017-02-06T13:11:46.338Z,130
2017-02-06T13:12:59.992Z,130
2017-02-06T13:14:13.788Z,130
2017-02-06T13:15:27.862Z,130
2017-02-06T13:16:41.781Z,135
2017-02-06T13:17:56.055Z,135
2017-02-06T13:19:10.185Z,135
2017-02-06T13:20:23.822Z,135
2017-02-06T13:21:37.346Z,135
2017-02-06T13:22:50.930Z,135
2017-02-06T13:24:05.632Z,135
2017-02-06T13:25:19.507Z,135
2017-02-06T13:26:33.382Z,135
2017-02-06T13:27:47.355Z,130
2017-02-06T13:29:00.939Z,130
2017-02-06T13:30:14.775Z,130
2017-02-06T13:31:30.509Z,130
2017-02-06T13:32:44.144Z,130
2017-02-06T13:33:58.398Z,130
2017-02-06T13:35:12.681Z,130
2017-02-06T13:36:26.628Z,130
2017-02-06T13:37:40.115Z,130
2017-02-06T13:38:53.697Z,130
2017-02-06T13:40:22.030Z,130
2017-02-06T13:41:36.342Z,130
2017-02-06T13:42:49.807Z,125
2017-02-06T13:44:03.860Z,120
2017-02-06T13:45:18.026Z,120
2017-02-06T13:46:31.624Z,115
2017-02-06T13:47:45.829Z,115
2017-02-06T13:48:59.485Z,115
2017-02-06T13:50:13.062Z,115
2017-02-06T13:51:27.231Z,115
2017-02-06T13:52:40.726Z,115
2017-02-06T13:53:55.094Z,115
2017-02-06T13:55:08.705Z,115
2017-02-06T13:56:22.295Z,115
2017-02-06T13:57:36.246Z,115
2017-02-06T13:58:50.363Z,110
2017-02-06T14:00:05.141Z,110
2017-02-06T14:01:20.265Z,110
2017-02-06T14:02:33.718Z,105
2017-02-06T14:03:47.871Z,105
2017-02-06T14:05:01.795Z,100
2017-02-06T14:06:15.807Z,100
2017-02-06T14:07:29.693Z,95
2017-02-06T14:08:43.472Z,95
2017-02-06T14:09:57.783Z,95
2017-02-06T14:11:11.619Z,95
2017-02-06T14:12:25.479Z,95
2017-02-06T14:13:39.132Z,95
2017-02-06T14:14:53.477Z,90
2017-02-06T14:16:08.035Z,90
2017-02-06T14:17:21.593Z,95
2017-02-06T14:18:35.541Z,95
2017-02-06T14:19:49.029Z,90
2017-02-06T14:21:02.598Z,90
2017-02-06T14:22:16.145Z,90
2017-02-06T14:23:29.745Z,90
2017-02-06T14:24:44.315Z,90
2017-02-06T14:25:57.894Z,90
2017-02-06T14:27:11.502Z,85
2017-02-06T14:29:34.174Z,80
2017-02-06T14:30:48.790Z,75
2017-02-06T14:32:02.270Z,70
2017-02-06T14:33:16.364Z,70
2017-02-06T14:34:29.897Z,70
2017-02-06T14:35:43.544Z,70
2017-02-06T14:36:56.958Z,70
2017-02-06T14:38:10.998Z,65
2017-02-06T14:39:24.836Z,65
2017-02-06T14:40:38.435Z,65
2017-02-06T14:41:52.306Z,65
2017-02-06T14:43:07.039Z,65
2017-02-06T14:44:20.486Z,65
2017-02-06T14:45:34.433Z,65
2017-02-06T14:46:47.843Z,65
2017-02-06T14:48:01.406Z,65
2017-02-06T14:49:17.355Z,65
2017-02-06T14:50:31.325Z,65
2017-02-06T14:51:44.769Z,65
2017-02-06T14:52:58.542Z,70
2017-02-06T14:54:12.413Z,70
2017-02-06T14:55:26.229Z,70
2017-02-06T14:56:39.765Z,75
2017-02-06T14:57:53.808Z,75
2017-02-06T14:59:07.701Z,75
2017-02-06T15:00:21.267Z,75
2017-02-06T15:01:36.148Z,80
2017-02-06T15:02:49.839Z,80
2017-02-06T15:04:03.286Z,80
2017-02-06T15:05:17.739Z,80
2017-02-06T15:06:31.222Z,80
2017-02-06T15:07:45.077Z,85
2017-02-06T15:08:58.638Z,85
2017-02-06T15:10:18.852Z,85
2017-02-06T15:11:32.899Z,85
2017-02-06T15:12:47.031Z,85
2017-02-06T15:14:00.937Z,80
2017-02-06T15:15:14.746Z,80
2017-02-06T15:16:29.257Z,80
2017-02-06T15:17:42.739Z,80
2017-02-06T15:18:56.404Z,75
2017-02-06T15:20:11.159Z,75
2017-02-06T15:21:24.933Z,75
2017-02-06T15:22:38.434Z,70
2017-02-06T15:23:52.465Z,70
2017-02-06T15:25:06.927Z,65
2017-02-06T15:26:21.432Z,65
2017-02-06T15:27:35.782Z,60
2017-02-06T15:28:49.747Z,60
2017-02-06T15:30:03.660Z,55
2017-02-06T15:31:41.762Z,55
2017-02-06T15:32:55.353Z,50
2017-02-06T15:34:08.858Z,50
2017-02-06T15:35:22.507Z,45
2017-02-06T15:36:36.070Z,40
2017-02-06T15:37:49.657Z,40
2017-02-06T15:39:04.310Z,35
2017-02-06T15:40:18.397Z,35
2017-02-06T15:41:32.396Z,35
2017-02-06T15:42:46.409Z,30
2017-02-06T15:44:00.577Z,30
2017-02-06T15:45:14.653Z,30
2017-02-06T15:46:28.137Z,30
2017-02-06T15:47:41.706Z,30
2017-02-06T15:48:55.244Z,25
2017-02-06T15:50:09.173Z,25
2017-02-06T15:51:23.173Z,25
2017-02-06T15:52:36.769Z,25
2017-02-06T15:53:51.109Z,25
2017-02-06T15:55:22.077Z,25
2017-02-06T15:56:36.252Z,20
2017-02-06T15:57:50.237Z,20
2017-02-06T15:59:04.709Z,20
2017-02-06T16:00:18.263Z,20
2017-02-06T16:01:32.340Z,20
2017-02-06T16:02:46.018Z,20
2017-02-06T16:03:59.575Z,20
2017-02-06T16:05:13.466Z,20
2017-02-06T16:06:29.387Z,15
2017-02-06T16:07:43.577Z,15
2017-02-06T16:08:57.214Z,15
2017-02-06T16:10:11.196Z,15
2017-02-06T16:11:25.384Z,15
2017-02-06T16:12:39.093Z,10
2017-02-06T16:13:56.458Z,10
2017-02-06T16:15:18.861Z,10
2017-02-06T16:16:42.871Z,10
2017-02-06T16:18:09.245Z,10
2017-02-06T16:19:33.018Z,10
2017-02-06T16:20:55.283Z,5
2017-02-06T16:22:17.777Z,5
2017-02-06T16:23:33.217Z,5
2017-02-06T16:24:47.591Z,5
2017-02-06T16:26:01.652Z,5
2017-02-06T16:27:15.237Z,5
2017-02-06T16:28:28.950Z,5
2017-02-06T16:29:42.910Z,0
2017-02-06T16:30:56.950Z,0
2017-02-06T16:32:10.994Z,0
2017-02-06T16:33:24.691Z,0
2017-02-06T16:34:38.226Z,0
2017-02-06T16:35:52.450Z,0
2017-02-06T16:37:06.206Z,0
2017-02-06T16:38:19.881Z,0
2017-02-06T16:39:33.513Z,0
2017-02-06T16:40:47.937Z,0
2017-02-06T16:42:01.924Z,0
2017-02-06T16:43:24.703Z,0
2017-02-06T16:44:38.800Z,0
2017-02-06T16:45:52.720Z,0
2017-02-06T16:47:07.140Z,0
2017-02-06T16:48:21.214Z,0
2017-02-06T16:49:35.269Z,0
2017-02-06T16:50:50.248Z,0
2017-02-06T16:52:05.818Z,0
2017-02-06T16:53:20.380Z,0
2017-02-06T16:54:34.466Z,0
2017-02-06T16:55:48.401Z,0
2017-02-06T16:57:02.218Z,0
2017-02-06T16:58:16.577Z,0
2017-02-06T16:59:30.702Z,0
2017-02-06T17:00:44.220Z,0
2017-02-06T17:02:08.354Z,0
2017-02-06T17:03:31.176Z,0
2017-02-06T17:04:44.770Z,0
2017-02-06T17:05:58.331Z,0
2017-02-06T17:07:12.004Z,0
2017-02-06T17:08:25.549Z,0
2017-02-06T17:09:40.606Z,0
2017-02-06T17:10:54.098Z,0
2017-02-06T17:12:09.570Z,0
2017-02-06T17:13:24.719Z,0
2017-02-06T17:14:38.861Z,0
2017-02-06T17:15:52.770Z,0
2017-02-06T17:17:06.499Z,0
2017-02-06T17:18:20.727Z,0
2017-02-06T17:19:34.575Z,0
2017-02-06T17:21:01.639Z,0
2017-02-06T17:22:16.077Z,0
2017-02-06T17:23:30.307Z,0
2017-02-06T17:25:09.592Z,0
2017-02-06T17:26:24.055Z,0
2017-02-06T17:27:37.644Z,0
2017-02-06T17:28:51.401Z,0
2017-02-06T17:30:04.926Z,0
2017-02-06T17:31:18.981Z,0
2017-02-06T17:32:33.006Z,0
2017-02-06T17:33:46.725Z,0
2017-02-06T17:35:01.584Z,0
2017-02-06T17:36:15.768Z,0
2017-02-06T17:37:30.035Z,0
2017-02-06T17:38:44.942Z,0
2017-02-06T17:39:58.464Z,0
2017-02-06T17:41:12.045Z,0
2017-02-06T17:42:25.583Z,0
2017-02-06T17:43:39.925Z,0
2017-02-06T17:44:53.897Z,0
2017-02-06T17:46:07.942Z,0
2017-02-06T17:47:21.872Z,0
2017-02-06T17:48:36.479Z,0
2017-02-06T17:49:51.568Z,0
2017-02-06T17:51:17.851Z,0
2017-02-06T17:52:34.907Z,0
2017-02-06T17:53:48.477Z,0
2017-02-06T17:55:02.037Z,0
2017-02-06T17:56:15.629Z,0
2017-02-06T17:57:29.535Z,0
2017-02-06T17:58:43.148Z,0
2017-02-06T17:59:57.117Z,0
2017-02-06T18:01:10.798Z,0
2017-02-06T18:02:24.745Z,0